Time;durP1;ratioP1;P1;durP2;ratioP2;P2;SDS_P1;SDS_P2;PMS_P1;PMS_P2;Temp;Humidity;BMP_temperature;BMP_pressure;BME280_temperature;BME280_humidity;BME280_pressure;Samples;Min_cycle;Max_cycle;Signal;HPM_P1;HPM_P2
2021/04/27 00:03:58;;;;;;;4.88;2.00;;;4.90;99.90;;;;;;12377584;28;20660;-78
2021/04/27 00:09:59;;;;;;;5.28;1.80;;;4.70;99.90;;;;;;12384059;28;20621;-79
2021/04/27 00:16:01;;;;;;;2.88;1.58;;;4.90;99.90;;;;;;12397912;28;20057;-79
2021/04/27 00:22:02;;;;;;;4.82;1.52;;;5.00;99.90;;;;;;12383444;28;20558;-79
2021/04/27 00:28:04;;;;;;;3.17;1.40;;;5.00;99.90;;;;;;12387623;28;20046;-79
2021/04/27 00:34:05;;;;;;;2.65;1.27;;;4.90;99.90;;;;;;12382250;28;20123;-78
2021/04/27 00:40:09;;;;;;;5.32;1.67;;;4.80;99.90;;;;;;12378025;28;20127;-79
2021/04/27 00:46:10;;;;;;;2.67;1.53;;;4.80;99.90;;;;;;12371651;28;20563;-79
2021/04/27 00:52:12;;;;;;;6.88;1.50;;;4.80;99.90;;;;;;12369174;28;20070;-78
2021/04/27 00:58:13;;;;;;;4.47;1.20;;;4.80;99.90;;;;;;12379489;28;20141;-79
2021/04/27 01:04:14;;;;;;;3.90;1.30;;;4.90;99.90;;;;;;12392143;28;20054;-79
2021/04/27 01:10:20;;;;;;;3.67;1.88;;;4.80;99.90;;;;;;12392932;28;20374;-79
2021/04/27 01:16:22;;;;;;;2.97;1.20;;;4.80;99.90;;;;;;12377370;28;20046;-78
2021/04/27 01:22:47;;;;;;;3.10;1.30;;;4.80;99.90;;;;;;12392950;28;20064;-78
2021/04/27 01:28:50;;;;;;;8.30;1.58;;;4.80;99.90;;;;;;12393690;28;20138;-79
2021/04/27 01:34:52;;;;;;;3.08;1.70;;;4.70;99.90;;;;;;12380228;28;20050;-79
2021/04/27 01:40:55;;;;;;;3.35;1.20;;;4.70;99.90;;;;;;12383307;28;20173;-79
2021/04/27 01:46:57;;;;;;;2.38;1.08;;;4.70;99.90;;;;;;12379398;28;20144;-79
2021/04/27 01:52:59;;;;;;;3.05;1.30;;;4.60;99.90;;;;;;12375321;28;20072;-78
2021/04/27 01:59:01;;;;;;;2.35;1.00;;;4.60;99.90;;;;;;12379124;28;20185;-79
2021/04/27 02:05:05;;;;;;;5.82;1.20;;;4.70;99.90;;;;;;12373871;28;20142;-80
2021/04/27 02:11:07;;;;;;;3.17;1.27;;;4.50;99.90;;;;;;12380674;28;20062;-79
2021/04/27 02:17:22;;;;;;;2.10;1.05;;;4.30;99.90;;;;;;12374888;28;20586;-79
2021/04/27 02:23:24;;;;;;;9.10;1.27;;;4.20;99.90;;;;;;12389284;28;20074;-78
2021/04/27 02:29:26;;;;;;;3.00;1.08;;;4.20;99.90;;;;;;12382618;28;20103;-79
2021/04/27 02:35:30;;;;;;;2.25;1.20;;;4.10;99.90;;;;;;12374181;28;20054;-79
2021/04/27 02:41:32;;;;;;;3.22;1.00;;;4.20;99.90;;;;;;12373770;28;20046;-80
2021/04/27 02:47:34;;;;;;;3.80;1.30;;;4.30;99.90;;;;;;12371180;28;20129;-78
2021/04/27 02:53:35;;;;;;;6.82;1.20;;;4.70;99.90;;;;;;12367345;28;20468;-78
2021/04/27 02:59:36;;;;;;;4.78;1.70;;;4.00;99.90;;;;;;12382073;28;20062;-78
2021/04/27 03:05:38;;;;;;;4.65;1.30;;;3.80;99.90;;;;;;12386523;28;20166;-79
2021/04/27 03:11:45;;;;;;;4.50;1.35;;;3.80;99.90;;;;;;12397842;28;20499;-78
2021/04/27 03:17:46;;;;;;;2.40;1.02;;;3.80;99.90;;;;;;12387845;28;20435;-78
2021/04/27 03:23:47;;;;;;;2.60;1.23;;;3.60;99.90;;;;;;12404047;28;20061;-79
2021/04/27 03:29:49;;;;;;;2.55;1.00;;;3.50;99.90;;;;;;12438475;28;20147;-79
2021/04/27 03:35:51;;;;;;;5.40;1.38;;;3.50;99.90;;;;;;12437074;28;20046;-79
2021/04/27 03:41:52;;;;;;;2.72;1.08;;;3.40;99.90;;;;;;12424799;28;20057;-78
2021/04/27 03:47:53;;;;;;;2.85;1.42;;;3.30;99.90;;;;;;12416384;28;20383;-79
2021/04/27 03:53:55;;;;;;;2.72;1.23;;;3.30;99.90;;;;;;12382021;28;20062;-78
2021/04/27 03:59:56;;;;;;;4.75;1.20;;;3.20;99.90;;;;;;12379151;28;20119;-79
2021/04/27 04:05:58;;;;;;;4.90;1.10;;;3.30;99.90;;;;;;12382404;28;21249;-78
2021/04/27 04:11:59;;;;;;;2.67;1.13;;;3.40;99.90;;;;;;12393560;28;20046;-78
2021/04/27 04:18:00;;;;;;;3.88;1.13;;;3.30;99.90;;;;;;12380819;28;20144;-78
2021/04/27 04:24:02;;;;;;;2.47;1.40;;;3.50;99.90;;;;;;12377531;28;20050;-78
2021/04/27 04:30:08;;;;;;;3.90;1.83;;;3.30;99.90;;;;;;12399023;28;20054;-78
2021/04/27 04:36:10;;;;;;;3.63;1.40;;;3.20;99.90;;;;;;12388381;28;20058;-78
2021/04/27 04:42:12;;;;;;;3.33;1.73;;;3.30;99.90;;;;;;12380469;28;20503;-79
2021/04/27 04:48:13;;;;;;;9.85;2.03;;;3.40;99.90;;;;;;12381562;28;20076;-78
2021/04/27 04:54:14;;;;;;;3.08;1.40;;;3.70;99.90;;;;;;12371902;28;20503;-79
2021/04/27 05:00:19;;;;;;;4.35;1.45;;;3.90;99.90;;;;;;12376020;28;20053;-79
2021/04/27 05:06:21;;;;;;;6.10;1.40;;;4.20;99.90;;;;;;12373340;28;20145;-79
2021/04/27 05:12:22;;;;;;;4.00;1.40;;;5.00;99.90;;;;;;12375998;28;20099;-79
2021/04/27 05:18:23;;;;;;;3.63;1.60;;;5.20;99.90;;;;;;12377916;28;20133;-78
2021/04/27 05:24:25;;;;;;;3.05;1.20;;;6.70;99.90;;;;;;12372658;28;20081;-78
2021/04/27 05:30:27;;;;;;;3.63;1.40;;;7.30;99.90;;;;;;12376566;28;20156;-79
2021/04/27 05:36:28;;;;;;;4.55;1.40;;;7.20;99.90;;;;;;12379891;28;20045;-79
2021/04/27 05:42:29;;;;;;;3.95;1.20;;;8.00;99.90;;;;;;12373181;28;20100;-79
2021/04/27 05:48:31;;;;;;;4.78;1.50;;;8.40;99.90;;;;;;12372300;28;20116;-78
2021/04/27 05:54:33;;;;;;;5.70;1.55;;;9.30;99.90;;;;;;12379036;28;20042;-79
2021/04/27 06:00:35;;;;;;;3.72;1.40;;;9.90;99.90;;;;;;12385418;28;20698;-79
2021/04/27 06:06:57;;;;;;;3.38;1.30;;;8.50;99.90;;;;;;12373477;28;20449;-79
2021/04/27 06:12:59;;;;;;;3.00;1.33;;;7.70;99.90;;;;;;12372159;28;20138;-78
2021/04/27 06:19:00;;;;;;;9.98;1.50;;;7.20;99.90;;;;;;12378139;28;20066;-79
2021/04/27 06:25:02;;;;;;;3.40;1.30;;;7.20;99.90;;;;;;12393720;28;20129;-78
2021/04/27 06:31:04;;;;;;;2.33;1.00;;;7.30;99.90;;;;;;12381873;28;20141;-79
2021/04/27 06:37:05;;;;;;;6.97;1.48;;;7.00;99.90;;;;;;12400265;28;20331;-79
2021/04/27 06:43:07;;;;;;;2.85;1.20;;;7.00;99.90;;;;;;12383282;28;20058;-79
2021/04/27 06:49:08;;;;;;;5.07;1.40;;;6.80;99.90;;;;;;12386854;28;20042;-78
2021/04/27 06:55:10;;;;;;;3.70;1.10;;;6.60;99.90;;;;;;12385929;28;20488;-78
2021/04/27 07:01:12;;;;;;;3.65;1.10;;;6.70;99.90;;;;;;12383231;28;20054;-78
2021/04/27 07:07:13;;;;;;;3.83;1.23;;;6.90;99.90;;;;;;12375422;28;20058;-79
2021/04/27 07:13:15;;;;;;;5.88;1.20;;;7.50;99.90;;;;;;12382908;28;20092;-79
2021/04/27 07:19:16;;;;;;;7.57;1.55;;;8.00;99.90;;;;;;12387148;28;20406;-79
2021/04/27 07:25:18;;;;;;;5.50;1.45;;;8.10;99.90;;;;;;12402875;28;20053;-79
2021/04/27 07:31:20;;;;;;;3.72;1.05;;;8.50;99.90;;;;;;12382395;28;20045;-80
2021/04/27 07:37:21;;;;;;;2.15;0.95;;;8.70;98.80;;;;;;12386584;28;20076;-79
2021/04/27 07:43:22;;;;;;;5.22;1.30;;;8.50;99.90;;;;;;12394006;28;20038;-79
2021/04/27 07:49:24;;;;;;;3.88;1.02;;;8.80;97.50;;;;;;12380292;28;20054;-80
2021/04/27 07:55:26;;;;;;;2.00;0.95;;;9.10;99.90;;;;;;12382558;28;20058;-79
2021/04/27 08:01:27;;;;;;;2.97;0.90;;;9.50;99.90;;;;;;12383568;28;20128;-79
2021/04/27 08:07:29;;;;;;;3.53;1.15;;;9.60;96.70;;;;;;12383844;28;20088;-80
2021/04/27 08:13:30;;;;;;;2.95;0.90;;;9.80;99.40;;;;;;12380598;28;20530;-80
2021/04/27 08:19:32;;;;;;;2.70;1.08;;;9.70;95.80;;;;;;12389815;28;20050;-80
2021/04/27 08:25:33;;;;;;;7.82;0.93;;;9.20;93.10;;;;;;12386033;28;20514;-79
2021/04/27 08:31:35;;;;;;;2.92;0.90;;;9.20;94.20;;;;;;12381356;28;20046;-79
2021/04/27 08:37:37;;;;;;;2.88;1.00;;;9.00;92.30;;;;;;12399565;28;20362;-80
2021/04/27 08:43:40;;;;;;;8.50;1.02;;;9.70;94.90;;;;;;12386666;28;20057;-80
2021/04/27 08:49:41;;;;;;;4.45;1.40;;;9.90;96.10;;;;;;12382922;28;20499;-79
2021/04/27 08:55:42;;;;;;;5.50;1.10;;;9.90;91.00;;;;;;12373138;28;20042;-79
2021/04/27 09:01:45;;;;;;;2.47;1.10;;;9.90;91.60;;;;;;12374361;28;20042;-79
2021/04/27 09:07:48;;;;;;;4.40;1.17;;;10.40;93.60;;;;;;12383500;28;20054;-79
2021/04/27 09:14:06;;;;;;;2.28;1.10;;;10.50;91.70;;;;;;12368041;28;20108;-80
2021/04/27 09:20:08;;;;;;;2.90;1.05;;;10.90;93.70;;;;;;12374686;28;20387;-80
2021/04/27 09:26:15;;;;;;;6.57;1.30;;;11.00;93.40;;;;;;12374425;28;20054;-80
2021/04/27 09:32:31;;;;;;;2.97;1.30;;;10.80;87.50;;;;;;12374683;28;20996;-80
2021/04/27 09:38:33;;;;;;;3.15;1.38;;;10.60;87.30;;;;;;12374964;28;20111;-79
2021/04/27 09:44:50;;;;;;;3.65;1.20;;;11.00;85.70;;;;;;12374824;28;20128;-80
2021/04/27 09:50:51;;;;;;;4.38;1.20;;;11.50;88.00;;;;;;12371369;28;20337;-79
2021/04/27 09:56:54;;;;;;;2.58;1.30;;;11.90;86.70;;;;;;12368281;28;20253;-79
2021/04/27 10:02:58;;;;;;;4.63;1.30;;;11.50;78.70;;;;;;12378397;28;20124;-80
2021/04/27 10:09:00;;;;;;;4.90;1.50;;;11.60;79.30;;;;;;12380919;28;20363;-80
2021/04/27 10:15:01;;;;;;;3.88;1.40;;;12.30;83.60;;;;;;12393567;28;20133;-80
2021/04/27 10:21:05;;;;;;;2.42;1.27;;;12.40;84.20;;;;;;12376056;28;20074;-80
2021/04/27 10:27:07;;;;;;;3.38;1.42;;;12.70;86.10;;;;;;12402870;28;20377;-80
2021/04/27 10:33:17;;;;;;;2.50;1.40;;;13.10;91.30;;;;;;12392189;28;20491;-80
2021/04/27 10:39:39;;;;;;;9.18;1.50;;;12.90;87.40;;;;;;12393195;28;20138;-80
2021/04/27 10:45:41;;;;;;;4.80;1.30;;;12.50;85.90;;;;;;12396814;28;20183;-80
2021/04/27 10:51:42;;;;;;;6.70;1.60;;;12.70;87.60;;;;;;12382586;28;20050;-80
2021/04/27 10:57:48;;;;;;;3.65;1.30;;;13.10;93.60;;;;;;12378236;28;20053;-81
2021/04/27 11:03:51;;;;;;;2.95;1.83;;;13.30;88.70;;;;;;12382148;28;20046;-81
2021/04/27 11:10:04;;;;;;;2.73;1.37;;;13.00;87.30;;;;;;12389393;28;20076;-81
2021/04/27 11:16:30;;;;;;;4.47;1.20;;;13.10;81.00;;;;;;12405651;28;20876;-80
2021/04/27 11:22:34;;;;;;;3.38;1.48;;;14.00;92.20;;;;;;12383804;28;20051;-81
2021/04/27 11:28:55;;;;;;;4.97;1.60;;;13.80;88.90;;;;;;12389194;28;20462;-81
2021/04/27 11:35:11;;;;;;;5.60;2.00;;;14.30;89.90;;;;;;12386199;28;20046;-81
2021/04/27 11:41:12;;;;;;;4.30;1.80;;;14.10;82.60;;;;;;12391372;28;20608;-80
2021/04/27 11:47:15;;;;;;;3.20;1.40;;;14.00;84.10;;;;;;12385040;28;20487;-80
2021/04/27 11:53:18;;;;;;;4.33;1.57;;;13.60;78.40;;;;;;12384716;28;20054;-81
2021/04/27 11:59:20;;;;;;;3.65;1.40;;;14.10;78.00;;;;;;12401033;28;20071;-80
2021/04/27 12:05:21;;;;;;;4.70;1.60;;;14.10;79.80;;;;;;12379620;28;20062;-80
2021/04/27 12:11:25;;;;;;;4.30;2.00;;;14.50;75.20;;;;;;12376698;28;20140;-80
2021/04/27 12:17:35;;;;;;;4.70;1.77;;;14.60;81.30;;;;;;12396556;28;20533;-81
2021/04/27 12:23:37;;;;;;;5.85;1.88;;;14.80;85.00;;;;;;12382187;28;20668;-80
2021/04/27 12:29:42;;;;;;;3.17;1.60;;;15.00;84.00;;;;;;12379442;28;20046;-80
2021/04/27 12:35:43;;;;;;;4.00;1.67;;;15.20;82.20;;;;;;12392317;28;20038;-81
2021/04/27 12:41:44;;;;;;;6.32;1.70;;;15.00;82.10;;;;;;12382723;28;20165;-81
2021/04/27 12:47:49;;;;;;;6.90;1.90;;;15.30;84.70;;;;;;12385726;28;20089;-81
2021/04/27 12:53:51;;;;;;;2.97;1.73;;;15.50;87.50;;;;;;12380198;28;20072;-81
2021/04/27 13:00:04;;;;;;;3.03;1.55;;;14.70;79.30;;;;;;12382984;28;20414;-80
2021/04/27 13:06:25;;;;;;;5.37;1.87;;;15.40;89.00;;;;;;12379005;28;20172;-81
2021/04/27 13:12:29;;;;;;;5.55;2.22;;;15.40;85.90;;;;;;12383245;28;20133;-81
2021/04/27 13:18:32;;;;;;;7.77;1.87;;;15.10;79.80;;;;;;12379268;28;20140;-81
2021/04/27 13:24:55;;;;;;;6.05;2.05;;;14.70;76.70;;;;;;12392301;28;20395;-80
2021/04/27 13:30:56;;;;;;;4.28;1.98;;;15.70;81.40;;;;;;12381414;28;20109;-81
2021/04/27 13:36:57;;;;;;;4.15;1.70;;;15.30;80.20;;;;;;12381135;28;20058;-80
2021/04/27 13:43:00;;;;;;;5.35;1.80;;;16.40;87.40;;;;;;12371930;28;20108;-80
2021/04/27 13:49:02;;;;;;;7.35;2.00;;;15.90;75.10;;;;;;12387476;28;20054;-81
2021/04/27 13:55:04;;;;;;;3.53;1.98;;;15.40;79.40;;;;;;12378232;28;20078;-80
2021/04/27 14:01:05;;;;;;;5.22;1.90;;;15.50;81.60;;;;;;12399363;28;20093;-81
2021/04/27 14:07:07;;;;;;;3.47;1.80;;;15.60;77.30;;;;;;12381439;28;20145;-81
2021/04/27 14:13:09;;;;;;;7.32;2.00;;;15.60;87.90;;;;;;12384184;28;20111;-81
2021/04/27 14:19:10;;;;;;;5.72;1.90;;;15.90;77.10;;;;;;12415832;28;20065;-81
2021/04/27 14:25:13;;;;;;;4.95;2.10;;;15.80;83.50;;;;;;12444303;28;20047;-81
2021/04/27 14:31:14;;;;;;;3.47;1.80;;;15.80;71.00;;;;;;12404862;28;20039;-80
2021/04/27 14:37:15;;;;;;;3.88;2.05;;;15.80;77.20;;;;;;12383418;28;20109;-81
2021/04/27 14:43:16;;;;;;;4.10;1.73;;;16.00;84.20;;;;;;12384208;28;20050;-80
2021/04/27 14:49:18;;;;;;;5.40;1.80;;;16.20;76.20;;;;;;12384534;28;20053;-80
2021/04/27 14:55:21;;;;;;;4.22;2.45;;;15.60;72.50;;;;;;12404261;28;20096;-80
2021/04/27 15:01:22;;;;;;;7.45;1.85;;;15.80;74.50;;;;;;12390216;28;20065;-81
2021/04/27 15:07:23;;;;;;;3.95;1.85;;;16.00;76.40;;;;;;12395706;28;20147;-80
2021/04/27 15:13:25;;;;;;;4.22;1.80;;;16.00;83.20;;;;;;12399474;28;20221;-81
2021/04/27 15:19:27;;;;;;;4.22;2.00;;;15.20;79.60;;;;;;12389840;28;20059;-80
2021/04/27 15:25:28;;;;;;;5.15;1.83;;;16.00;84.20;;;;;;12388248;28;20141;-80
2021/04/27 15:31:37;;;;;;;5.40;2.08;;;15.60;75.90;;;;;;12371118;28;20051;-81
2021/04/27 15:37:41;;;;;;;5.78;2.15;;;16.00;82.60;;;;;;12338772;28;20047;-80
2021/04/27 15:43:43;;;;;;;6.70;2.30;;;15.60;78.80;;;;;;12359739;28;20160;-80
2021/04/27 15:49:44;;;;;;;7.03;2.15;;;15.00;77.40;;;;;;12380760;28;20384;-81
2021/04/27 15:55:46;;;;;;;7.30;1.83;;;15.60;84.10;;;;;;12380031;28;20491;-80
2021/04/27 16:01:49;;;;;;;3.55;1.85;;;16.90;89.40;;;;;;12377604;28;20574;-80
2021/04/27 16:07:51;;;;;;;6.43;2.20;;;17.00;83.40;;;;;;12378820;28;20392;-81
2021/04/27 16:13:53;;;;;;;3.35;1.85;;;17.20;81.20;;;;;;12381930;28;20178;-80
2021/04/27 16:19:55;;;;;;;6.75;1.85;;;17.10;83.00;;;;;;12381276;28;20096;-81
2021/04/27 16:25:58;;;;;;;3.78;1.70;;;16.60;75.00;;;;;;12380563;28;20054;-80
2021/04/27 16:31:59;;;;;;;3.67;1.98;;;16.90;74.60;;;;;;12378269;28;20100;-81
2021/04/27 16:38:01;;;;;;;5.78;1.98;;;16.80;77.80;;;;;;12379512;28;20129;-80
2021/04/27 16:44:03;;;;;;;5.93;2.20;;;17.50;74.40;;;;;;12376455;28;20049;-80
2021/04/27 16:50:06;;;;;;;3.72;2.00;;;17.50;77.30;;;;;;12382578;28;20135;-81
2021/04/27 16:56:08;;;;;;;4.78;2.13;;;16.70;76.30;;;;;;12394275;28;20133;-80
2021/04/27 17:02:11;;;;;;;6.75;1.80;;;16.80;75.90;;;;;;12376635;28;20092;-80
2021/04/27 17:08:13;;;;;;;6.57;2.10;;;16.20;76.90;;;;;;12374969;28;20054;-80
2021/04/27 17:14:14;;;;;;;4.03;1.88;;;16.20;74.70;;;;;;12373624;28;20301;-80
2021/04/27 17:20:16;;;;;;;4.95;2.22;;;15.80;85.60;;;;;;12387726;28;20128;-80
2021/04/27 17:26:18;;;;;;;4.00;2.03;;;14.70;75.30;;;;;;12389177;28;20371;-80
2021/04/27 17:32:22;;;;;;;6.05;2.55;;;14.10;86.30;;;;;;12365379;28;20562;-80
2021/04/27 17:38:24;;;;;;;6.88;2.47;;;14.00;83.50;;;;;;12368413;28;20101;-80
2021/04/27 17:44:25;;;;;;;8.40;2.25;;;14.10;89.50;;;;;;12378828;28;20125;-80
2021/04/27 17:50:27;;;;;;;4.05;2.20;;;14.40;82.60;;;;;;12377968;28;20050;-80
2021/04/27 17:56:28;;;;;;;3.85;2.00;;;14.30;84.80;;;;;;12370806;28;20471;-80
2021/04/27 18:02:29;;;;;;;9.35;2.55;;;14.20;83.40;;;;;;12377645;28;20084;-80
2021/04/27 18:08:32;;;;;;;8.93;2.10;;;13.20;83.40;;;;;;12375771;28;20077;-80
2021/04/27 18:14:35;;;;;;;4.88;2.65;;;12.70;85.40;;;;;;12391487;28;20050;-80
2021/04/27 18:20:37;;;;;;;5.22;2.50;;;12.30;87.70;;;;;;12376057;28;20080;-79
2021/04/27 18:26:39;;;;;;;4.40;2.63;;;12.00;92.70;;;;;;12388781;28;20082;-80
2021/04/27 18:32:40;;;;;;;6.60;2.80;;;11.60;89.00;;;;;;12378297;28;20573;-79
2021/04/27 18:38:42;;;;;;;10.35;2.58;;;11.30;90.00;;;;;;12382070;28;20096;-80
2021/04/27 18:44:43;;;;;;;9.07;2.53;;;11.10;87.60;;;;;;12385117;28;20046;-79
2021/04/27 18:50:46;;;;;;;7.90;2.55;;;10.90;88.20;;;;;;12385237;28;20042;-80
2021/04/27 18:56:47;;;;;;;5.57;2.70;;;10.70;85.60;;;;;;12382476;28;20043;-80
2021/04/27 19:02:51;;;;;;;9.35;2.70;;;10.50;89.00;;;;;;12383408;28;20490;-79
2021/04/27 19:08:53;;;;;;;4.13;2.42;;;10.40;89.70;;;;;;12378278;28;20108;-79
2021/04/27 19:14:54;;;;;;;7.40;2.30;;;10.30;90.20;;;;;;12374097;28;20133;-79
2021/04/27 19:20:56;;;;;;;5.40;2.67;;;10.20;90.30;;;;;;12382783;28;20050;-79
2021/04/27 19:26:58;;;;;;;7.30;2.33;;;10.10;90.60;;;;;;12398412;28;20138;-79
2021/04/27 19:33:01;;;;;;;5.90;2.60;;;10.00;89.40;;;;;;12380086;28;20046;-79
2021/04/27 19:39:05;;;;;;;4.90;2.80;;;9.90;89.60;;;;;;12376155;28;20133;-78
2021/04/27 19:45:07;;;;;;;6.43;2.65;;;9.80;89.60;;;;;;12369505;28;20103;-79
2021/04/27 19:51:08;;;;;;;4.78;2.65;;;9.80;90.70;;;;;;12398308;28;20153;-79
2021/04/27 19:57:09;;;;;;;7.28;2.30;;;9.70;92.40;;;;;;12374697;28;20108;-79
2021/04/27 20:03:28;;;;;;;6.03;2.70;;;9.70;90.60;;;;;;12385311;28;20084;-79
2021/04/27 20:09:29;;;;;;;8.05;2.38;;;9.60;88.50;;;;;;12387509;28;20082;-79
2021/04/27 20:15:31;;;;;;;6.68;3.60;;;9.50;91.40;;;;;;12389474;28;20116;-79
2021/04/27 20:21:34;;;;;;;5.90;2.40;;;9.40;91.40;;;;;;12384522;28;20049;-79
2021/04/27 20:27:36;;;;;;;5.65;2.30;;;9.40;91.00;;;;;;12382775;28;20054;-79
2021/04/27 20:33:37;;;;;;;6.32;2.50;;;9.30;91.80;;;;;;12380121;28;20112;-79
2021/04/27 20:39:39;;;;;;;5.25;2.22;;;9.10;92.20;;;;;;12383805;28;20078;-79
2021/04/27 20:45:40;;;;;;;3.03;1.90;;;9.00;91.10;;;;;;12384528;28;20180;-79
2021/04/27 20:51:43;;;;;;;5.47;2.30;;;9.00;90.70;;;;;;12398309;28;20123;-79
2021/04/27 20:57:45;;;;;;;7.88;2.15;;;8.90;91.30;;;;;;12382039;28;20046;-79
2021/04/27 21:03:46;;;;;;;4.15;2.30;;;8.90;90.30;;;;;;12377983;28;20084;-78
2021/04/27 21:09:48;;;;;;;6.10;1.90;;;8.80;92.30;;;;;;12374147;28;20225;-78
2021/04/27 21:15:49;;;;;;;5.35;2.40;;;8.80;92.20;;;;;;12377636;28;20080;-79
2021/04/27 21:21:50;;;;;;;10.20;3.30;;;8.70;93.10;;;;;;12370904;28;20485;-79
2021/04/27 21:27:51;;;;;;;4.05;2.00;;;8.70;92.60;;;;;;12391724;28;20054;-79
2021/04/27 21:33:53;;;;;;;5.03;2.55;;;8.60;91.60;;;;;;12376175;28;20049;-79
2021/04/27 21:39:54;;;;;;;4.97;2.42;;;8.60;92.70;;;;;;12369372;28;20046;-78
2021/04/27 21:45:56;;;;;;;4.80;2.55;;;8.50;95.10;;;;;;12385117;28;20140;-79
2021/04/27 21:51:57;;;;;;;5.10;2.45;;;8.50;94.30;;;;;;12379989;28;20129;-79
2021/04/27 21:57:59;;;;;;;4.00;2.03;;;8.40;96.50;;;;;;12375726;28;20041;-78
2021/04/27 22:04:00;;;;;;;4.50;2.20;;;8.30;92.50;;;;;;12372725;28;20050;-79
2021/04/27 22:10:01;;;;;;;3.83;2.00;;;8.30;94.10;;;;;;12374126;28;20050;-78
2021/04/27 22:16:05;;;;;;;5.68;2.05;;;8.20;92.90;;;;;;12377850;28;20120;-79
2021/04/27 22:22:06;;;;;;;6.25;2.10;;;8.20;94.70;;;;;;12390680;28;20054;-78
2021/04/27 22:28:08;;;;;;;6.25;2.72;;;8.10;92.50;;;;;;12375904;28;20054;-78
2021/04/27 22:34:09;;;;;;;4.85;2.25;;;8.10;95.20;;;;;;12382779;28;20042;-78
2021/04/27 22:40:15;;;;;;;5.28;2.22;;;8.10;96.50;;;;;;12378780;28;20153;-79
2021/04/27 22:46:16;;;;;;;4.55;2.15;;;8.00;93.70;;;;;;12375465;28;20046;-79
2021/04/27 22:52:18;;;;;;;5.32;1.90;;;8.00;97.20;;;;;;12380918;28;20827;-78
2021/04/27 22:58:19;;;;;;;5.50;1.90;;;8.00;94.90;;;;;;12377574;28;20138;-79
2021/04/27 23:04:20;;;;;;;5.22;2.10;;;8.00;97.70;;;;;;12374943;28;20543;-78
2021/04/27 23:10:23;;;;;;;4.18;2.10;;;8.00;99.90;;;;;;12375427;28;20137;-78
2021/04/27 23:16:24;;;;;;;3.40;2.10;;;8.00;97.90;;;;;;12397292;28;20141;-78
2021/04/27 23:22:28;;;;;;;3.50;2.03;;;7.90;99.90;;;;;;12384753;28;20047;-79
2021/04/27 23:28:29;;;;;;;4.82;2.10;;;7.80;97.30;;;;;;12384913;28;20406;-79
2021/04/27 23:34:31;;;;;;;4.72;1.90;;;7.80;98.50;;;;;;12380667;28;20035;-78
2021/04/27 23:40:32;;;;;;;7.35;2.17;;;7.70;99.90;;;;;;12378657;28;20496;-79
2021/04/27 23:46:34;;;;;;;5.25;2.30;;;7.60;99.90;;;;;;12379105;28;20125;-78
2021/04/27 23:52:35;;;;;;;5.18;2.50;;;7.70;99.90;;;;;;12385138;28;20050;-78
2021/04/27 23:58:36;;;;;;;4.28;2.22;;;7.70;99.90;;;;;;12382466;28;20435;-78
